sensor_id;sensor_type;location;lat;lon;timestamp;temperature;humidity
65582;DHT22;52231;40.090;18.348;2022-09-11T00:01:42;23.90;84.60
65582;DHT22;52231;40.090;18.348;2022-09-11T00:04:10;23.90;84.70
65582;DHT22;52231;40.090;18.348;2022-09-11T00:06:38;23.90;84.80
65582;DHT22;52231;40.090;18.348;2022-09-11T00:09:07;23.90;84.90
65582;DHT22;52231;40.090;18.348;2022-09-11T00:11:39;23.80;85.10
65582;DHT22;52231;40.090;18.348;2022-09-11T00:14:16;23.80;85.20
65582;DHT22;52231;40.090;18.348;2022-09-11T00:16:45;23.80;85.30
65582;DHT22;52231;40.090;18.348;2022-09-11T00:19:17;23.80;85.40
65582;DHT22;52231;40.090;18.348;2022-09-11T00:21:47;23.80;85.40
65582;DHT22;52231;40.090;18.348;2022-09-11T00:24:18;23.80;85.40
65582;DHT22;52231;40.090;18.348;2022-09-11T00:26:46;23.80;85.40
65582;DHT22;52231;40.090;18.348;2022-09-11T00:29:14;23.80;85.40
65582;DHT22;52231;40.090;18.348;2022-09-11T00:31:42;23.80;85.40
65582;DHT22;52231;40.090;18.348;2022-09-11T00:34:10;23.80;85.50
65582;DHT22;52231;40.090;18.348;2022-09-11T00:36:38;23.80;85.40
65582;DHT22;52231;40.090;18.348;2022-09-11T00:39:10;23.70;85.40
65582;DHT22;52231;40.090;18.348;2022-09-11T00:41:41;23.70;85.50
65582;DHT22;52231;40.090;18.348;2022-09-11T00:46:45;23.70;85.50
65582;DHT22;52231;40.090;18.348;2022-09-11T00:49:19;23.60;85.50
65582;DHT22;52231;40.090;18.348;2022-09-11T00:51:53;23.60;85.40
65582;DHT22;52231;40.090;18.348;2022-09-11T00:54:29;23.60;85.40
65582;DHT22;52231;40.090;18.348;2022-09-11T00:56:59;23.50;85.30
65582;DHT22;52231;40.090;18.348;2022-09-11T00:59:30;23.50;85.20
65582;DHT22;52231;40.090;18.348;2022-09-11T01:02:00;23.40;85.20
65582;DHT22;52231;40.090;18.348;2022-09-11T01:04:28;23.40;85.20
65582;DHT22;52231;40.090;18.348;2022-09-11T01:06:56;23.40;85.20
65582;DHT22;52231;40.090;18.348;2022-09-11T01:09:26;23.30;85.20
65582;DHT22;52231;40.090;18.348;2022-09-11T01:12:07;23.30;85.20
65582;DHT22;52231;40.090;18.348;2022-09-11T01:17:46;23.30;84.90
65582;DHT22;52231;40.090;18.348;2022-09-11T01:20:55;23.30;84.80
65582;DHT22;52231;40.090;18.348;2022-09-11T01:23:53;23.20;84.90
65582;DHT22;52231;40.090;18.348;2022-09-11T01:29:06;23.20;84.80
65582;DHT22;52231;40.090;18.348;2022-09-11T01:31:49;23.20;84.60
65582;DHT22;52231;40.090;18.348;2022-09-11T01:34:41;23.10;84.60
65582;DHT22;52231;40.090;18.348;2022-09-11T01:37:23;23.00;84.70
65582;DHT22;52231;40.090;18.348;2022-09-11T01:39:59;23.00;84.80
65582;DHT22;52231;40.090;18.348;2022-09-11T01:42:32;23.00;84.90
65582;DHT22;52231;40.090;18.348;2022-09-11T01:45:03;23.00;84.80
65582;DHT22;52231;40.090;18.348;2022-09-11T01:47:33;23.00;84.80
65582;DHT22;52231;40.090;18.348;2022-09-11T01:50:06;23.00;84.90
65582;DHT22;52231;40.090;18.348;2022-09-11T01:52:46;23.00;84.90
65582;DHT22;52231;40.090;18.348;2022-09-11T01:55:28;22.90;84.90
65582;DHT22;52231;40.090;18.348;2022-09-11T01:58:05;23.00;84.80
65582;DHT22;52231;40.090;18.348;2022-09-11T02:00:41;23.00;84.70
65582;DHT22;52231;40.090;18.348;2022-09-11T02:03:17;23.00;84.60
65582;DHT22;52231;40.090;18.348;2022-09-11T02:05:58;23.00;84.60
65582;DHT22;52231;40.090;18.348;2022-09-11T02:08:44;22.90;84.50
65582;DHT22;52231;40.090;18.348;2022-09-11T02:11:18;22.90;84.40
65582;DHT22;52231;40.090;18.348;2022-09-11T02:14:16;22.90;84.40
65582;DHT22;52231;40.090;18.348;2022-09-11T02:17:04;22.80;84.40
65582;DHT22;52231;40.090;18.348;2022-09-11T02:19:35;22.80;84.40
65582;DHT22;52231;40.090;18.348;2022-09-11T02:22:06;22.80;84.30
65582;DHT22;52231;40.090;18.348;2022-09-11T02:24:37;22.80;84.30
65582;DHT22;52231;40.090;18.348;2022-09-11T02:27:11;22.80;84.30
65582;DHT22;52231;40.090;18.348;2022-09-11T02:29:39;22.70;84.20
65582;DHT22;52231;40.090;18.348;2022-09-11T02:32:08;22.60;84.20
65582;DHT22;52231;40.090;18.348;2022-09-11T02:34:39;22.60;84.10
65582;DHT22;52231;40.090;18.348;2022-09-11T02:50:58;22.60;81.70
65582;DHT22;52231;40.090;18.348;2022-09-11T02:53:51;22.50;81.10
65582;DHT22;52231;40.090;18.348;2022-09-11T02:56:53;22.50;80.60
65582;DHT22;52231;40.090;18.348;2022-09-11T02:59:24;22.50;79.70
65582;DHT22;52231;40.090;18.348;2022-09-11T03:01:55;22.40;79.50
65582;DHT22;52231;40.090;18.348;2022-09-11T03:04:27;22.40;78.50
65582;DHT22;52231;40.090;18.348;2022-09-11T03:06:57;22.40;77.60
65582;DHT22;52231;40.090;18.348;2022-09-11T03:09:25;22.30;77.10
65582;DHT22;52231;40.090;18.348;2022-09-11T03:11:59;22.40;76.90
65582;DHT22;52231;40.090;18.348;2022-09-11T03:14:27;22.40;76.60
65582;DHT22;52231;40.090;18.348;2022-09-11T03:16:55;22.40;76.70
65582;DHT22;52231;40.090;18.348;2022-09-11T03:19:24;22.30;76.90
65582;DHT22;52231;40.090;18.348;2022-09-11T03:21:52;22.30;76.80
65582;DHT22;52231;40.090;18.348;2022-09-11T03:24:22;22.20;76.30
65582;DHT22;52231;40.090;18.348;2022-09-11T03:26:50;22.20;76.10
65582;DHT22;52231;40.090;18.348;2022-09-11T03:29:18;22.20;76.10
65582;DHT22;52231;40.090;18.348;2022-09-11T03:31:46;22.20;76.40
65582;DHT22;52231;40.090;18.348;2022-09-11T03:34:14;22.20;76.30
65582;DHT22;52231;40.090;18.348;2022-09-11T03:36:45;22.10;76.40
65582;DHT22;52231;40.090;18.348;2022-09-11T03:39:14;22.10;76.60
65582;DHT22;52231;40.090;18.348;2022-09-11T03:41:43;22.00;76.40
65582;DHT22;52231;40.090;18.348;2022-09-11T03:44:10;22.00;76.20
65582;DHT22;52231;40.090;18.348;2022-09-11T03:46:41;22.00;76.30
65582;DHT22;52231;40.090;18.348;2022-09-11T03:49:09;21.90;76.20
65582;DHT22;52231;40.090;18.348;2022-09-11T03:51:38;21.90;76.20
65582;DHT22;52231;40.090;18.348;2022-09-11T03:54:06;21.90;76.10
65582;DHT22;52231;40.090;18.348;2022-09-11T03:56:34;21.80;76.00
65582;DHT22;52231;40.090;18.348;2022-09-11T03:59:05;21.80;76.00
65582;DHT22;52231;40.090;18.348;2022-09-11T04:01:35;21.80;76.00
65582;DHT22;52231;40.090;18.348;2022-09-11T04:04:04;21.80;75.70
65582;DHT22;52231;40.090;18.348;2022-09-11T04:06:38;21.80;75.30
65582;DHT22;52231;40.090;18.348;2022-09-11T04:09:07;21.80;75.40
65582;DHT22;52231;40.090;18.348;2022-09-11T04:11:35;21.70;75.10
65582;DHT22;52231;40.090;18.348;2022-09-11T04:14:14;21.70;75.10
65582;DHT22;52231;40.090;18.348;2022-09-11T04:16:43;21.70;75.10
65582;DHT22;52231;40.090;18.348;2022-09-11T04:19:11;21.70;75.40
65582;DHT22;52231;40.090;18.348;2022-09-11T04:21:43;21.60;75.40
65582;DHT22;52231;40.090;18.348;2022-09-11T04:24:11;21.60;75.10
65582;DHT22;52231;40.090;18.348;2022-09-11T04:26:39;21.60;74.30
65582;DHT22;52231;40.090;18.348;2022-09-11T04:29:18;21.60;73.70
65582;DHT22;52231;40.090;18.348;2022-09-11T04:31:50;21.60;73.40
65582;DHT22;52231;40.090;18.348;2022-09-11T04:34:19;21.60;73.20
65582;DHT22;52231;40.090;18.348;2022-09-11T04:36:47;21.70;73.10
65582;DHT22;52231;40.090;18.348;2022-09-11T04:39:19;21.70;73.20
65582;DHT22;52231;40.090;18.348;2022-09-11T04:41:48;21.80;73.20
65582;DHT22;52231;40.090;18.348;2022-09-11T04:44:16;21.80;73.40
65582;DHT22;52231;40.090;18.348;2022-09-11T04:46:44;21.80;73.40
65582;DHT22;52231;40.090;18.348;2022-09-11T04:49:12;21.90;73.10
65582;DHT22;52231;40.090;18.348;2022-09-11T04:51:42;21.90;72.90
65582;DHT22;52231;40.090;18.348;2022-09-11T04:54:15;22.00;72.90
65582;DHT22;52231;40.090;18.348;2022-09-11T04:56:45;22.20;72.60
65582;DHT22;52231;40.090;18.348;2022-09-11T04:59:19;22.30;72.00
65582;DHT22;52231;40.090;18.348;2022-09-11T05:01:59;22.40;71.50
65582;DHT22;52231;40.090;18.348;2022-09-11T05:04:49;22.60;70.60
65582;DHT22;52231;40.090;18.348;2022-09-11T05:07:17;22.70;70.10
65582;DHT22;52231;40.090;18.348;2022-09-11T05:09:48;22.90;69.70
65582;DHT22;52231;40.090;18.348;2022-09-11T05:12:18;23.00;68.70
65582;DHT22;52231;40.090;18.348;2022-09-11T05:14:46;23.30;67.80
65582;DHT22;52231;40.090;18.348;2022-09-11T05:17:14;23.50;66.50
65582;DHT22;52231;40.090;18.348;2022-09-11T05:19:43;23.70;65.80
65582;DHT22;52231;40.090;18.348;2022-09-11T05:22:11;24.00;64.40
65582;DHT22;52231;40.090;18.348;2022-09-11T05:24:45;24.20;63.70
65582;DHT22;52231;40.090;18.348;2022-09-11T05:27:13;24.50;63.00
65582;DHT22;52231;40.090;18.348;2022-09-11T05:29:41;24.80;61.90
65582;DHT22;52231;40.090;18.348;2022-09-11T05:32:11;25.00;60.50
65582;DHT22;52231;40.090;18.348;2022-09-11T05:34:41;25.30;59.40
65582;DHT22;52231;40.090;18.348;2022-09-11T05:37:12;25.50;58.10
65582;DHT22;52231;40.090;18.348;2022-09-11T05:39:44;25.70;57.20
65582;DHT22;52231;40.090;18.348;2022-09-11T05:42:14;25.80;56.10
65582;DHT22;52231;40.090;18.348;2022-09-11T05:44:47;26.00;55.10
65582;DHT22;52231;40.090;18.348;2022-09-11T05:47:16;26.20;54.90
65582;DHT22;52231;40.090;18.348;2022-09-11T05:49:47;26.40;53.90
65582;DHT22;52231;40.090;18.348;2022-09-11T05:52:16;26.60;53.00
65582;DHT22;52231;40.090;18.348;2022-09-11T05:54:44;26.80;52.00
65582;DHT22;52231;40.090;18.348;2022-09-11T05:57:14;27.00;51.10
65582;DHT22;52231;40.090;18.348;2022-09-11T05:59:43;27.20;51.10
65582;DHT22;52231;40.090;18.348;2022-09-11T06:02:11;27.30;50.20
65582;DHT22;52231;40.090;18.348;2022-09-11T06:04:45;27.30;49.70
65582;DHT22;52231;40.090;18.348;2022-09-11T06:07:14;27.40;49.20
65582;DHT22;52231;40.090;18.348;2022-09-11T06:09:46;27.70;48.80
65582;DHT22;52231;40.090;18.348;2022-09-11T06:12:15;27.90;49.30
65582;DHT22;52231;40.090;18.348;2022-09-11T06:14:47;28.00;48.20
65582;DHT22;52231;40.090;18.348;2022-09-11T06:17:15;28.10;47.80
65582;DHT22;52231;40.090;18.348;2022-09-11T06:19:44;28.30;47.20
65582;DHT22;52231;40.090;18.348;2022-09-11T06:22:13;28.50;47.10
65582;DHT22;52231;40.090;18.348;2022-09-11T06:24:43;28.60;46.80
65582;DHT22;52231;40.090;18.348;2022-09-11T06:27:12;28.60;46.10
65582;DHT22;52231;40.090;18.348;2022-09-11T06:29:43;28.80;46.40
65582;DHT22;52231;40.090;18.348;2022-09-11T06:32:12;28.90;45.80
65582;DHT22;52231;40.090;18.348;2022-09-11T06:34:41;29.00;44.80
65582;DHT22;52231;40.090;18.348;2022-09-11T06:37:12;29.20;44.10
65582;DHT22;52231;40.090;18.348;2022-09-11T06:39:41;29.30;43.80
65582;DHT22;52231;40.090;18.348;2022-09-11T06:42:14;29.40;43.60
65582;DHT22;52231;40.090;18.348;2022-09-11T06:44:42;29.40;43.30
65582;DHT22;52231;40.090;18.348;2022-09-11T06:47:12;29.50;43.90
65582;DHT22;52231;40.090;18.348;2022-09-11T06:49:40;29.60;43.30
65582;DHT22;52231;40.090;18.348;2022-09-11T06:52:28;29.70;43.20
65582;DHT22;52231;40.090;18.348;2022-09-11T06:55:07;29.80;42.50
65582;DHT22;52231;40.090;18.348;2022-09-11T06:57:45;29.80;42.40
65582;DHT22;52231;40.090;18.348;2022-09-11T07:00:18;29.90;42.20
65582;DHT22;52231;40.090;18.348;2022-09-11T07:02:46;29.90;42.60
65582;DHT22;52231;40.090;18.348;2022-09-11T07:05:14;29.90;42.40
65582;DHT22;52231;40.090;18.348;2022-09-11T07:07:53;30.20;42.30
65582;DHT22;52231;40.090;18.348;2022-09-11T07:10:40;30.30;41.60
65582;DHT22;52231;40.090;18.348;2022-09-11T07:13:08;30.70;41.10
65582;DHT22;52231;40.090;18.348;2022-09-11T07:15:38;31.00;40.60
65582;DHT22;52231;40.090;18.348;2022-09-11T07:18:07;31.10;40.20
65582;DHT22;52231;40.090;18.348;2022-09-11T07:20:38;31.30;39.70
65582;DHT22;52231;40.090;18.348;2022-09-11T07:23:09;31.30;39.10
65582;DHT22;52231;40.090;18.348;2022-09-11T07:25:39;31.30;39.10
65582;DHT22;52231;40.090;18.348;2022-09-11T07:28:10;31.40;38.90
65582;DHT22;52231;40.090;18.348;2022-09-11T07:30:40;31.50;38.70
65582;DHT22;52231;40.090;18.348;2022-09-11T07:33:08;31.70;38.20
65582;DHT22;52231;40.090;18.348;2022-09-11T07:35:36;31.70;37.50
65582;DHT22;52231;40.090;18.348;2022-09-11T07:38:04;31.90;37.70
65582;DHT22;52231;40.090;18.348;2022-09-11T07:40:35;32.00;37.90
65582;DHT22;52231;40.090;18.348;2022-09-11T07:43:05;32.20;37.30
65582;DHT22;52231;40.090;18.348;2022-09-11T07:45:33;32.40;36.60
65582;DHT22;52231;40.090;18.348;2022-09-11T07:48:02;32.70;36.20
65582;DHT22;52231;40.090;18.348;2022-09-11T07:50:30;32.70;35.40
65582;DHT22;52231;40.090;18.348;2022-09-11T07:52:59;32.60;35.10
65582;DHT22;52231;40.090;18.348;2022-09-11T07:55:28;32.40;35.10
65582;DHT22;52231;40.090;18.348;2022-09-11T07:57:57;32.40;34.90
65582;DHT22;52231;40.090;18.348;2022-09-11T08:00:37;32.50;34.80
65582;DHT22;52231;40.090;18.348;2022-09-11T08:03:13;32.60;34.10
65582;DHT22;52231;40.090;18.348;2022-09-11T08:05:42;32.80;34.20
65582;DHT22;52231;40.090;18.348;2022-09-11T08:08:12;32.90;34.60
65582;DHT22;52231;40.090;18.348;2022-09-11T08:10:40;33.30;33.90
65582;DHT22;52231;40.090;18.348;2022-09-11T08:13:08;33.40;33.90
65582;DHT22;52231;40.090;18.348;2022-09-11T08:15:44;33.50;32.80
65582;DHT22;52231;40.090;18.348;2022-09-11T08:18:12;33.50;33.20
65582;DHT22;52231;40.090;18.348;2022-09-11T08:20:40;33.50;33.30
65582;DHT22;52231;40.090;18.348;2022-09-11T08:23:10;33.60;32.90
65582;DHT22;52231;40.090;18.348;2022-09-11T08:25:38;33.80;32.00
65582;DHT22;52231;40.090;18.348;2022-09-11T08:28:08;33.90;32.60
65582;DHT22;52231;40.090;18.348;2022-09-11T08:30:37;33.90;32.70
65582;DHT22;52231;40.090;18.348;2022-09-11T08:33:06;34.20;32.50
65582;DHT22;52231;40.090;18.348;2022-09-11T08:35:36;34.40;31.80
65582;DHT22;52231;40.090;18.348;2022-09-11T08:38:05;34.40;31.80
65582;DHT22;52231;40.090;18.348;2022-09-11T08:40:36;34.50;31.70
65582;DHT22;52231;40.090;18.348;2022-09-11T08:43:26;34.60;31.30
65582;DHT22;52231;40.090;18.348;2022-09-11T08:46:00;34.70;30.70
65582;DHT22;52231;40.090;18.348;2022-09-11T08:49:01;34.50;30.80
65582;DHT22;52231;40.090;18.348;2022-09-11T08:51:31;34.50;30.90
65582;DHT22;52231;40.090;18.348;2022-09-11T08:54:02;34.70;30.40
65582;DHT22;52231;40.090;18.348;2022-09-11T08:56:35;34.80;30.90
65582;DHT22;52231;40.090;18.348;2022-09-11T08:59:31;35.00;30.20
65582;DHT22;52231;40.090;18.348;2022-09-11T09:02:57;35.00;30.20
65582;DHT22;52231;40.090;18.348;2022-09-11T09:13:59;34.80;30.00
65582;DHT22;52231;40.090;18.348;2022-09-11T09:24:28;35.60;28.90
65582;DHT22;52231;40.090;18.348;2022-09-11T09:27:41;35.70;28.60
65582;DHT22;52231;40.090;18.348;2022-09-11T09:30:14;35.70;28.10
65582;DHT22;52231;40.090;18.348;2022-09-11T09:35:41;35.20;29.10
65582;DHT22;52231;40.090;18.348;2022-09-11T09:38:15;35.10;29.20
65582;DHT22;52231;40.090;18.348;2022-09-11T09:41:06;34.90;30.00
65582;DHT22;52231;40.090;18.348;2022-09-11T09:46:41;35.50;29.80
65582;DHT22;52231;40.090;18.348;2022-09-11T09:49:16;35.70;29.70
65582;DHT22;52231;40.090;18.348;2022-09-11T09:51:47;35.90;29.40
65582;DHT22;52231;40.090;18.348;2022-09-11T09:54:35;36.00;28.40
65582;DHT22;52231;40.090;18.348;2022-09-11T09:57:08;35.70;28.50
65582;DHT22;52231;40.090;18.348;2022-09-11T10:02:49;35.60;29.00
65582;DHT22;52231;40.090;18.348;2022-09-11T10:06:02;35.70;28.90
65582;DHT22;52231;40.090;18.348;2022-09-11T10:08:31;36.10;28.30
65582;DHT22;52231;40.090;18.348;2022-09-11T10:11:05;36.40;28.00
65582;DHT22;52231;40.090;18.348;2022-09-11T10:13:37;36.60;28.20
65582;DHT22;52231;40.090;18.348;2022-09-11T10:16:21;36.80;27.60
65582;DHT22;52231;40.090;18.348;2022-09-11T10:18:51;36.80;27.80
65582;DHT22;52231;40.090;18.348;2022-09-11T10:21:39;36.60;26.90
65582;DHT22;52231;40.090;18.348;2022-09-11T10:26:42;36.40;26.20
65582;DHT22;52231;40.090;18.348;2022-09-11T10:29:27;36.40;27.00
65582;DHT22;52231;40.090;18.348;2022-09-11T10:31:59;36.40;26.80
65582;DHT22;52231;40.090;18.348;2022-09-11T10:34:37;36.30;25.90
65582;DHT22;52231;40.090;18.348;2022-09-11T10:37:29;36.00;26.60
65582;DHT22;52231;40.090;18.348;2022-09-11T10:40:06;36.00;26.80
65582;DHT22;52231;40.090;18.348;2022-09-11T10:42:35;36.30;27.00
65582;DHT22;52231;40.090;18.348;2022-09-11T10:45:16;36.40;27.00
65582;DHT22;52231;40.090;18.348;2022-09-11T10:47:44;36.70;26.80
65582;DHT22;52231;40.090;18.348;2022-09-11T10:53:19;36.80;25.30
65582;DHT22;52231;40.090;18.348;2022-09-11T10:55:57;36.00;25.50
65582;DHT22;52231;40.090;18.348;2022-09-11T10:58:47;35.70;25.60
65582;DHT22;52231;40.090;18.348;2022-09-11T11:01:18;35.80;26.30
65582;DHT22;52231;40.090;18.348;2022-09-11T11:03:47;35.90;26.20
65582;DHT22;52231;40.090;18.348;2022-09-11T11:09:35;36.40;26.70
65582;DHT22;52231;40.090;18.348;2022-09-11T11:12:32;36.30;27.20
65582;DHT22;52231;40.090;18.348;2022-09-11T11:27:20;35.90;26.60
65582;DHT22;52231;40.090;18.348;2022-09-11T11:35:42;35.70;26.40
65582;DHT22;52231;40.090;18.348;2022-09-11T11:38:19;35.20;26.70
65582;DHT22;52231;40.090;18.348;2022-09-11T11:40:55;35.10;27.90
65582;DHT22;52231;40.090;18.348;2022-09-11T11:43:28;35.00;27.30
65582;DHT22;52231;40.090;18.348;2022-09-11T11:54:14;34.90;27.50
65582;DHT22;52231;40.090;18.348;2022-09-11T11:57:05;34.80;27.20
65582;DHT22;52231;40.090;18.348;2022-09-11T12:02:18;34.40;27.50
65582;DHT22;52231;40.090;18.348;2022-09-11T12:05:04;34.50;27.60
65582;DHT22;52231;40.090;18.348;2022-09-11T12:07:35;34.60;27.70
65582;DHT22;52231;40.090;18.348;2022-09-11T12:10:16;34.60;28.20
65582;DHT22;52231;40.090;18.348;2022-09-11T12:12:46;34.70;28.80
65582;DHT22;52231;40.090;18.348;2022-09-11T12:15:24;34.80;28.60
65582;DHT22;52231;40.090;18.348;2022-09-11T12:18:24;34.80;29.10
65582;DHT22;52231;40.090;18.348;2022-09-11T12:24:10;34.90;28.80
65582;DHT22;52231;40.090;18.348;2022-09-11T12:26:39;35.00;28.30
65582;DHT22;52231;40.090;18.348;2022-09-11T12:34:19;34.70;31.00
65582;DHT22;52231;40.090;18.348;2022-09-11T12:36:57;34.80;30.60
65582;DHT22;52231;40.090;18.348;2022-09-11T12:45:29;35.10;29.80
65582;DHT22;52231;40.090;18.348;2022-09-11T12:48:51;34.90;30.10
65582;DHT22;52231;40.090;18.348;2022-09-11T12:50:55;35.00;29.40
65582;DHT22;52231;40.090;18.348;2022-09-11T12:53:30;34.90;29.50
65582;DHT22;52231;40.090;18.348;2022-09-11T12:56:05;34.90;29.40
65582;DHT22;52231;40.090;18.348;2022-09-11T12:58:38;35.00;29.70
65582;DHT22;52231;40.090;18.348;2022-09-11T13:09:27;34.60;39.10
65582;DHT22;52231;40.090;18.348;2022-09-11T13:14:50;34.10;40.60
65582;DHT22;52231;40.090;18.348;2022-09-11T13:17:46;33.50;41.60
65582;DHT22;52231;40.090;18.348;2022-09-11T13:22:43;32.70;43.60
65582;DHT22;52231;40.090;18.348;2022-09-11T13:25:19;32.20;45.00
65582;DHT22;52231;40.090;18.348;2022-09-11T13:27:56;31.80;46.20
65582;DHT22;52231;40.090;18.348;2022-09-11T13:30:27;31.60;46.80
65582;DHT22;52231;40.090;18.348;2022-09-11T13:35:28;30.80;48.30
65582;DHT22;52231;40.090;18.348;2022-09-11T13:38:08;30.50;48.70
65582;DHT22;52231;40.090;18.348;2022-09-11T13:43:27;30.00;49.30
65582;DHT22;52231;40.090;18.348;2022-09-11T13:48:49;29.90;50.20
65582;DHT22;52231;40.090;18.348;2022-09-11T13:51:29;29.90;50.30
65582;DHT22;52231;40.090;18.348;2022-09-11T13:54:02;29.80;50.90
65582;DHT22;52231;40.090;18.348;2022-09-11T13:56:45;29.80;50.40
65582;DHT22;52231;40.090;18.348;2022-09-11T14:01:59;29.90;50.30
65582;DHT22;52231;40.090;18.348;2022-09-11T14:04:28;29.80;50.40
65582;DHT22;52231;40.090;18.348;2022-09-11T14:06:57;29.90;50.40
65582;DHT22;52231;40.090;18.348;2022-09-11T14:09:25;29.80;49.90
65582;DHT22;52231;40.090;18.348;2022-09-11T14:11:53;29.90;50.00
65582;DHT22;52231;40.090;18.348;2022-09-11T14:14:28;30.10;50.20
65582;DHT22;52231;40.090;18.348;2022-09-11T14:16:59;30.10;49.90
65582;DHT22;52231;40.090;18.348;2022-09-11T14:19:31;30.00;50.10
65582;DHT22;52231;40.090;18.348;2022-09-11T14:22:15;29.80;50.50
65582;DHT22;52231;40.090;18.348;2022-09-11T14:25:10;29.80;50.80
65582;DHT22;52231;40.090;18.348;2022-09-11T14:27:41;29.70;50.90
65582;DHT22;52231;40.090;18.348;2022-09-11T14:30:29;29.70;51.50
65582;DHT22;52231;40.090;18.348;2022-09-11T14:33:12;29.70;51.10
65582;DHT22;52231;40.090;18.348;2022-09-11T14:35:43;29.70;52.00
65582;DHT22;52231;40.090;18.348;2022-09-11T14:38:15;29.60;51.20
65582;DHT22;52231;40.090;18.348;2022-09-11T14:40:51;29.60;51.60
65582;DHT22;52231;40.090;18.348;2022-09-11T14:43:29;29.50;51.00
65582;DHT22;52231;40.090;18.348;2022-09-11T14:46:00;29.40;51.50
65582;DHT22;52231;40.090;18.348;2022-09-11T14:48:33;29.30;52.10
65582;DHT22;52231;40.090;18.348;2022-09-11T14:51:03;29.30;51.90
65582;DHT22;52231;40.090;18.348;2022-09-11T14:53:38;29.20;51.30
65582;DHT22;52231;40.090;18.348;2022-09-11T14:56:11;29.10;50.60
65582;DHT22;52231;40.090;18.348;2022-09-11T14:58:39;29.10;50.30
65582;DHT22;52231;40.090;18.348;2022-09-11T15:01:09;29.00;50.20
65582;DHT22;52231;40.090;18.348;2022-09-11T15:03:40;28.90;50.70
65582;DHT22;52231;40.090;18.348;2022-09-11T15:06:15;28.90;50.80
65582;DHT22;52231;40.090;18.348;2022-09-11T15:08:44;28.90;50.60
65582;DHT22;52231;40.090;18.348;2022-09-11T15:11:12;28.90;50.40
65582;DHT22;52231;40.090;18.348;2022-09-11T15:13:41;28.80;49.60
65582;DHT22;52231;40.090;18.348;2022-09-11T15:16:24;28.70;49.70
65582;DHT22;52231;40.090;18.348;2022-09-11T15:18:53;28.70;50.20
65582;DHT22;52231;40.090;18.348;2022-09-11T15:21:21;28.70;50.50
65582;DHT22;52231;40.090;18.348;2022-09-11T15:23:49;28.60;49.60
65582;DHT22;52231;40.090;18.348;2022-09-11T15:26:17;28.50;49.80
65582;DHT22;52231;40.090;18.348;2022-09-11T15:28:46;28.40;50.50
65582;DHT22;52231;40.090;18.348;2022-09-11T15:31:17;28.40;50.40
65582;DHT22;52231;40.090;18.348;2022-09-11T15:33:50;28.30;50.40
65582;DHT22;52231;40.090;18.348;2022-09-11T15:36:19;28.30;49.60
65582;DHT22;52231;40.090;18.348;2022-09-11T15:38:53;28.10;50.00
65582;DHT22;52231;40.090;18.348;2022-09-11T15:41:22;28.10;50.70
65582;DHT22;52231;40.090;18.348;2022-09-11T15:43:52;28.00;51.20
65582;DHT22;52231;40.090;18.348;2022-09-11T15:46:20;27.90;52.00
65582;DHT22;52231;40.090;18.348;2022-09-11T15:48:49;27.80;52.40
65582;DHT22;52231;40.090;18.348;2022-09-11T15:51:20;27.80;53.00
65582;DHT22;52231;40.090;18.348;2022-09-11T15:53:48;27.60;53.00
65582;DHT22;52231;40.090;18.348;2022-09-11T15:56:21;27.60;52.80
65582;DHT22;52231;40.090;18.348;2022-09-11T15:58:56;27.50;53.30
65582;DHT22;52231;40.090;18.348;2022-09-11T16:01:31;27.40;52.50
65582;DHT22;52231;40.090;18.348;2022-09-11T16:04:05;27.40;51.80
65582;DHT22;52231;40.090;18.348;2022-09-11T16:06:39;27.30;51.80
65582;DHT22;52231;40.090;18.348;2022-09-11T16:09:16;27.30;52.00
65582;DHT22;52231;40.090;18.348;2022-09-11T16:11:45;27.30;52.50
65582;DHT22;52231;40.090;18.348;2022-09-11T16:14:16;27.40;52.70
65582;DHT22;52231;40.090;18.348;2022-09-11T16:16:46;27.40;52.40
65582;DHT22;52231;40.090;18.348;2022-09-11T16:19:15;27.50;52.30
65582;DHT22;52231;40.090;18.348;2022-09-11T16:21:45;27.50;52.70
65582;DHT22;52231;40.090;18.348;2022-09-11T16:24:13;27.50;53.00
65582;DHT22;52231;40.090;18.348;2022-09-11T16:26:42;27.40;53.20
65582;DHT22;52231;40.090;18.348;2022-09-11T16:29:13;27.30;53.60
65582;DHT22;52231;40.090;18.348;2022-09-11T16:31:48;27.30;54.10
65582;DHT22;52231;40.090;18.348;2022-09-11T16:34:17;27.30;54.00
65582;DHT22;52231;40.090;18.348;2022-09-11T16:36:45;27.30;54.00
65582;DHT22;52231;40.090;18.348;2022-09-11T16:39:17;27.20;53.90
65582;DHT22;52231;40.090;18.348;2022-09-11T16:41:46;27.20;54.10
65582;DHT22;52231;40.090;18.348;2022-09-11T16:44:15;27.20;54.10
65582;DHT22;52231;40.090;18.348;2022-09-11T16:46:45;27.20;54.20
65582;DHT22;52231;40.090;18.348;2022-09-11T16:49:17;27.20;54.10
65582;DHT22;52231;40.090;18.348;2022-09-11T16:51:46;27.20;53.40
65582;DHT22;52231;40.090;18.348;2022-09-11T16:54:14;27.00;53.70
65582;DHT22;52231;40.090;18.348;2022-09-11T16:56:43;27.00;53.90
65582;DHT22;52231;40.090;18.348;2022-09-11T16:59:13;27.00;53.90
65582;DHT22;52231;40.090;18.348;2022-09-11T17:01:42;26.90;54.30
65582;DHT22;52231;40.090;18.348;2022-09-11T17:04:12;26.90;54.60
65582;DHT22;52231;40.090;18.348;2022-09-11T17:06:40;26.80;54.90
65582;DHT22;52231;40.090;18.348;2022-09-11T17:09:09;26.70;55.50
65582;DHT22;52231;40.090;18.348;2022-09-11T17:11:37;26.60;55.80
65582;DHT22;52231;40.090;18.348;2022-09-11T17:14:05;26.60;56.10
65582;DHT22;52231;40.090;18.348;2022-09-11T17:16:35;26.60;56.40
65582;DHT22;52231;40.090;18.348;2022-09-11T17:19:03;26.60;56.80
65582;DHT22;52231;40.090;18.348;2022-09-11T17:21:33;26.50;57.10
65582;DHT22;52231;40.090;18.348;2022-09-11T17:24:05;26.40;57.40
65582;DHT22;52231;40.090;18.348;2022-09-11T17:26:34;26.30;57.70
65582;DHT22;52231;40.090;18.348;2022-09-11T17:29:03;26.30;58.00
65582;DHT22;52231;40.090;18.348;2022-09-11T17:31:32;26.30;58.40
65582;DHT22;52231;40.090;18.348;2022-09-11T17:34:00;26.20;58.50
65582;DHT22;52231;40.090;18.348;2022-09-11T17:36:28;26.30;58.80
65582;DHT22;52231;40.090;18.348;2022-09-11T17:38:57;26.30;58.90
65582;DHT22;52231;40.090;18.348;2022-09-11T17:41:26;26.30;58.60
65582;DHT22;52231;40.090;18.348;2022-09-11T17:43:54;26.30;58.50
65582;DHT22;52231;40.090;18.348;2022-09-11T17:46:23;26.30;58.90
65582;DHT22;52231;40.090;18.348;2022-09-11T17:48:51;26.30;59.30
65582;DHT22;52231;40.090;18.348;2022-09-11T17:51:25;26.20;59.90
65582;DHT22;52231;40.090;18.348;2022-09-11T17:53:56;26.20;60.50
65582;DHT22;52231;40.090;18.348;2022-09-11T17:56:27;26.20;61.10